Sobieski, Wisconsin
Current Conditions -  °F | °C
As of 7:55 PM on Sunday 21 Dec 2014 (Local Time) from KOCQ Reporting Station
Overcast Overcast  
Wind Chill: 27°   Ceiling: 2800
Heat Index: 34°   Visibility: 7mi
Dew Point: 33°   Wind: 9mph
Humidity: 95%   Direction: 160°SSE
Pressure: 29.99"   Gusts: NA
Location:  44.72°N, 88.07°W
Report Text: KOCQ 220155Z AUTO 16008KT 7SM OVC028 01/01 A2999 RMK AO1 T00130006
Loading
Personal Weather Stations






























Interactive Weather Map New forecast layout! Learn more

10-Day Weather Forecast

Advertisements
Track Severe Weather on mobile